createdAt,value
2022-08-17T00:00:18.284Z,84.17
2022-08-17T00:01:14.025Z,82.60
2022-08-17T00:02:18.721Z,82.90
2022-08-17T00:03:14.585Z,83.40
2022-08-17T00:04:13.064Z,83.00
2022-08-17T00:05:12.920Z,82.80
2022-08-17T00:06:12.909Z,83.61
2022-08-17T00:07:12.950Z,83.97
2022-08-17T00:08:12.895Z,83.87
2022-08-17T00:09:12.881Z,82.97
2022-08-17T00:10:13.868Z,82.86
2022-08-17T00:11:12.884Z,84.57
2022-08-17T00:12:43.136Z,83.87
2022-08-17T00:13:13.860Z,82.56
2022-08-17T00:14:12.904Z,82.56
2022-08-17T00:15:12.884Z,82.66
2022-08-17T00:16:12.806Z,81.85
2022-08-17T00:17:12.862Z,81.85
2022-08-17T00:19:06.412Z,82.86
2022-08-17T00:19:13.783Z,81.76
2022-08-17T00:20:12.805Z,82.22
2022-08-17T00:21:12.759Z,81.85
2022-08-17T00:22:35.207Z,81.01
2022-08-17T00:23:13.903Z,81.21
2022-08-17T00:24:12.726Z,81.21
2022-08-17T00:25:12.742Z,80.81
2022-08-17T00:26:12.690Z,81.32
2022-08-17T00:27:12.784Z,81.52
2022-08-17T00:28:12.779Z,81.12
2022-08-17T00:29:13.389Z,80.91
2022-08-17T00:30:13.659Z,81.21
2022-08-17T00:31:12.684Z,79.91
2022-08-17T00:33:13.959Z,79.50
2022-08-17T00:33:16.875Z,80.47
2022-08-17T00:34:12.664Z,79.87
2022-08-17T00:35:12.601Z,79.87
2022-08-17T00:36:12.605Z,79.37
2022-08-17T00:37:12.574Z,79.06
2022-08-17T00:38:12.600Z,79.53
2022-08-17T00:39:12.758Z,79.03
2022-08-17T00:40:12.598Z,80.27
2022-08-17T00:41:12.646Z,80.43
2022-08-17T00:42:12.520Z,79.73
2022-08-17T00:43:12.575Z,81.04
2022-08-17T00:44:12.633Z,79.73
2022-08-17T00:45:12.495Z,78.79
2022-08-17T00:46:12.516Z,78.79
2022-08-17T00:47:12.587Z,77.39
2022-08-17T00:48:23.817Z,77.95
2022-08-17T00:49:13.527Z,77.95
2022-08-17T00:50:12.438Z,77.95
2022-08-17T00:51:12.419Z,77.21
2022-08-17T00:52:12.429Z,77.91
2022-08-17T00:53:12.425Z,77.37
2022-08-17T00:54:12.447Z,77.67
2022-08-17T00:55:12.428Z,77.64
2022-08-17T00:56:12.385Z,77.87
2022-08-17T00:57:12.380Z,78.14
2022-08-17T00:58:12.379Z,78.24
2022-08-17T00:59:12.381Z,78.64
2022-08-17T01:00:12.348Z,79.85
2022-08-17T01:01:12.387Z,79.64
2022-08-17T01:02:13.312Z,79.64
2022-08-17T01:03:12.299Z,79.44
2022-08-17T01:11:13.702Z,80.21
2022-08-17T01:12:13.686Z,80.35
2022-08-17T01:13:13.654Z,79.50
2022-08-17T01:14:13.770Z,79.30
2022-08-17T01:15:13.740Z,80.51
2022-08-17T01:16:13.632Z,79.50
2022-08-17T01:17:13.628Z,81.11
2022-08-17T01:18:13.655Z,80.71
2022-08-17T01:19:13.605Z,80.91
2022-08-17T01:20:13.592Z,80.61
2022-08-17T01:21:13.623Z,81.85
2022-08-17T01:22:13.579Z,81.11
2022-08-17T01:23:18.542Z,80.94
2022-08-17T01:24:14.545Z,80.80
2022-08-17T01:25:13.517Z,80.85
2022-08-17T01:26:13.521Z,80.91
2022-08-17T01:27:13.507Z,79.50
2022-08-17T01:28:33.458Z,80.30
2022-08-17T01:29:14.512Z,79.80
2022-08-17T01:30:58.226Z,80.80
2022-08-17T01:31:14.474Z,80.21
2022-08-17T01:32:13.486Z,80.21
2022-08-17T01:33:13.453Z,80.91
2022-08-17T01:34:13.441Z,81.01
2022-08-17T01:35:13.410Z,80.41
2022-08-17T01:36:13.404Z,80.30
2022-08-17T01:37:13.387Z,79.71
2022-08-17T01:38:13.421Z,80.15
2022-08-17T01:39:13.397Z,80.85
2022-08-17T01:40:13.386Z,81.04
2022-08-17T01:41:13.365Z,81.24
2022-08-17T01:42:13.333Z,80.44
2022-08-17T01:43:13.324Z,80.35
2022-08-17T01:44:13.329Z,80.94
2022-08-17T01:45:13.353Z,80.85
2022-08-17T01:46:13.289Z,80.35
2022-08-17T01:47:13.292Z,79.64
2022-08-17T01:48:13.273Z,80.54
2022-08-17T01:49:13.293Z,80.91
2022-08-17T01:50:13.251Z,81.45
2022-08-17T01:51:13.279Z,81.15
2022-08-17T01:52:13.286Z,80.54
2022-08-17T01:53:13.216Z,81.15
2022-08-17T01:54:13.226Z,79.85
2022-08-17T01:55:13.203Z,78.80
2022-08-17T01:56:13.189Z,79.21
2022-08-17T01:57:13.200Z,77.86
2022-08-17T01:58:13.218Z,77.83
2022-08-17T01:59:13.253Z,77.53
2022-08-17T02:00:13.176Z,77.53
2022-08-17T02:01:13.211Z,77.43
2022-08-17T02:02:13.121Z,77.53
2022-08-17T02:03:14.150Z,77.73
2022-08-17T02:04:13.132Z,77.83
2022-08-17T02:05:13.086Z,78.33
2022-08-17T02:06:27.211Z,77.63
2022-08-17T02:07:14.100Z,77.83
2022-08-17T02:08:19.828Z,77.53
2022-08-17T02:09:16.470Z,77.83
2022-08-17T02:10:20.287Z,77.93
2022-08-17T02:11:14.023Z,77.63
2022-08-17T02:12:38.444Z,77.63
2022-08-17T02:13:14.028Z,77.83
2022-08-17T02:14:13.004Z,77.53
2022-08-17T02:15:12.975Z,77.33
2022-08-17T02:16:12.981Z,76.89
2022-08-17T02:17:12.956Z,77.53
2022-08-17T02:18:12.948Z,76.99
2022-08-17T02:19:12.960Z,77.29
2022-08-17T02:20:12.926Z,76.19
2022-08-17T02:21:12.916Z,75.89
2022-08-17T02:22:12.916Z,76.79
2022-08-17T02:23:12.910Z,76.39
2022-08-17T02:24:12.907Z,77.69
2022-08-17T02:25:12.912Z,77.69
2022-08-17T02:26:23.932Z,76.19
2022-08-17T02:27:13.863Z,76.69
2022-08-17T02:28:12.837Z,76.69
2022-08-17T02:29:12.912Z,78.19
2022-08-17T02:30:59.470Z,78.23
2022-08-17T02:31:13.802Z,79.13
2022-08-17T02:32:12.802Z,77.03
2022-08-17T02:33:13.785Z,77.73
2022-08-17T02:34:12.856Z,78.13
2022-08-17T02:35:12.757Z,79.23
2022-08-17T02:36:12.842Z,77.63
2022-08-17T02:37:12.783Z,78.33
2022-08-17T02:38:12.726Z,78.47
2022-08-17T02:39:12.717Z,79.77
2022-08-17T02:40:12.803Z,79.67
2022-08-17T02:41:12.737Z,79.30
2022-08-17T02:42:12.765Z,80.41
2022-08-17T02:43:12.699Z,80.51
2022-08-17T02:44:12.718Z,80.61
2022-08-17T02:45:12.650Z,81.11
2022-08-17T02:46:12.679Z,81.15
2022-08-17T02:47:12.646Z,80.74
2022-08-17T02:48:12.640Z,80.85
2022-08-17T02:49:12.625Z,80.74
2022-08-17T02:50:12.611Z,80.85
2022-08-17T02:51:12.645Z,81.48
2022-08-17T02:52:12.681Z,81.18
2022-08-17T02:53:12.562Z,82.29
2022-08-17T02:54:39.784Z,83.63
2022-08-17T02:55:13.554Z,81.32
2022-08-17T02:56:12.543Z,81.52
2022-08-17T02:57:12.521Z,81.99
2022-08-17T02:58:12.510Z,83.49
2022-08-17T02:59:12.518Z,83.43
2022-08-17T03:00:12.523Z,83.33
2022-08-17T03:01:12.543Z,82.69
2022-08-17T03:02:12.531Z,84.23
2022-08-17T03:03:12.460Z,83.23
2022-08-17T03:04:12.460Z,83.27
2022-08-17T03:05:12.430Z,83.03
2022-08-17T03:06:12.426Z,83.23
2022-08-17T03:07:12.409Z,83.63
2022-08-17T03:08:13.410Z,84.33
2022-08-17T03:09:12.423Z,84.13
2022-08-17T03:10:12.383Z,84.23
2022-08-17T03:11:12.364Z,83.73
2022-08-17T03:12:12.358Z,84.13
2022-08-17T03:13:12.401Z,84.93
2022-08-17T03:14:12.359Z,84.74
2022-08-17T03:15:12.371Z,85.74
2022-08-17T03:16:12.315Z,84.53
2022-08-17T03:17:12.781Z,84.63
2022-08-17T03:18:19.269Z,85.83
2022-08-17T03:19:13.299Z,84.93
2022-08-17T03:20:12.305Z,85.63
2022-08-17T03:21:12.326Z,85.63
2022-08-17T03:22:35.698Z,85.74
2022-08-17T03:23:13.248Z,86.08
2022-08-17T03:24:12.241Z,87.08
2022-08-17T03:25:12.264Z,86.94
2022-08-17T03:26:15.352Z,86.58
2022-08-17T03:27:12.201Z,85.58
2022-08-17T03:28:12.245Z,86.88
2022-08-17T03:29:12.202Z,86.38
2022-08-17T03:30:12.230Z,86.18
2022-08-17T03:31:12.153Z,85.58
2022-08-17T03:32:12.157Z,86.78
2022-08-17T03:33:12.127Z,87.28
2022-08-17T03:34:12.152Z,87.08
2022-08-17T03:35:12.136Z,86.68
2022-08-17T03:36:12.181Z,86.48
2022-08-17T03:37:12.097Z,85.78
2022-08-17T03:38:12.075Z,86.68
2022-08-17T03:39:12.184Z,86.52
2022-08-17T03:40:12.191Z,87.18
2022-08-17T03:41:12.101Z,87.22
2022-08-17T03:42:14.323Z,87.38
2022-08-17T03:43:13.026Z,87.08
2022-08-17T03:44:12.058Z,86.88
2022-08-17T03:45:15.372Z,86.98
2022-08-17T03:46:34.285Z,86.88
2022-08-17T03:47:12.993Z,86.68
2022-08-17T03:48:11.992Z,87.28
2022-08-17T03:49:12.004Z,86.98
2022-08-17T03:50:11.952Z,86.68
2022-08-17T03:51:14.785Z,86.88
2022-08-17T03:52:11.973Z,86.38
2022-08-17T03:53:11.947Z,86.68
2022-08-17T03:54:11.984Z,85.94
2022-08-17T03:55:11.891Z,85.83
2022-08-17T03:56:11.920Z,86.33
2022-08-17T03:57:11.898Z,85.94
2022-08-17T03:58:11.875Z,86.69
2022-08-17T03:59:20.861Z,86.94
2022-08-17T04:00:12.883Z,87.94
2022-08-17T04:01:11.903Z,87.74
2022-08-17T04:02:11.873Z,87.24
2022-08-17T04:03:11.827Z,87.64
2022-08-17T04:04:11.836Z,89.04
2022-08-17T04:05:11.811Z,90.09
2022-08-17T04:06:11.776Z,91.09
2022-08-17T04:07:11.775Z,90.89
2022-08-17T04:08:11.782Z,92.60
2022-08-17T04:09:11.762Z,92.54
2022-08-17T04:10:11.737Z,93.65
2022-08-17T04:11:11.729Z,94.75
2022-08-17T04:12:11.729Z,95.60
2022-08-17T04:13:11.730Z,96.20
2022-08-17T04:14:11.871Z,95.50
2022-08-17T04:15:11.705Z,95.90
2022-08-17T04:16:11.694Z,96.30
2022-08-17T04:17:11.686Z,96.45
2022-08-17T04:18:11.702Z,97.15
2022-08-17T04:19:11.637Z,97.85
2022-08-17T04:20:11.659Z,97.85
2022-08-17T04:21:11.676Z,97.66
2022-08-17T04:22:11.622Z,98.20
2022-08-17T04:23:12.612Z,98.60
2022-08-17T04:24:11.761Z,98.46
2022-08-17T04:25:11.575Z,98.50
2022-08-17T04:26:11.632Z,99.99
2022-08-17T04:27:12.551Z,99.99
2022-08-17T04:28:16.209Z,99.99
2022-08-17T04:29:11.569Z,99.99
2022-08-17T04:30:11.599Z,99.99
2022-08-17T04:31:11.518Z,99.99
2022-08-17T04:32:11.520Z,99.99
2022-08-17T04:33:11.639Z,99.99
2022-08-17T04:34:11.498Z,99.99
2022-08-17T04:35:11.466Z,99.99
2022-08-17T04:36:11.457Z,99.99
2022-08-17T04:37:11.560Z,99.99
2022-08-17T04:38:11.470Z,99.99
2022-08-17T04:39:11.417Z,99.99
2022-08-17T04:40:11.455Z,99.99
2022-08-17T04:41:11.402Z,99.99
2022-08-17T04:42:11.416Z,99.99
2022-08-17T04:43:11.433Z,99.99
2022-08-17T04:44:11.520Z,99.99
2022-08-17T04:45:11.353Z,99.99
2022-08-17T04:46:11.346Z,99.99
2022-08-17T04:47:11.356Z,99.99
2022-08-17T04:48:11.362Z,99.99
2022-08-17T04:49:11.312Z,99.99
2022-08-17T04:50:11.379Z,99.99
2022-08-17T04:51:11.294Z,99.99
2022-08-17T04:52:11.277Z,99.99
2022-08-17T04:53:12.277Z,99.99
2022-08-17T04:54:11.257Z,99.99
2022-08-17T04:55:11.246Z,99.99
2022-08-17T04:56:11.813Z,99.99
2022-08-17T04:57:12.249Z,99.99
2022-08-17T04:58:11.228Z,99.99
2022-08-17T04:59:11.288Z,99.99
2022-08-17T05:00:11.213Z,99.99
2022-08-17T05:01:11.243Z,99.99
2022-08-17T05:02:11.242Z,99.99
2022-08-17T05:03:11.172Z,99.99
2022-08-17T05:04:33.426Z,99.99
2022-08-17T05:05:12.196Z,99.99
2022-08-17T05:06:11.143Z,99.99
2022-08-17T05:07:11.174Z,99.99
2022-08-17T05:08:11.110Z,99.99
2022-08-17T05:09:11.084Z,99.99
2022-08-17T05:10:11.108Z,99.99
2022-08-17T05:11:11.068Z,99.99
2022-08-17T05:12:11.067Z,99.99
2022-08-17T05:13:11.146Z,99.99
2022-08-17T05:14:11.045Z,99.99
2022-08-17T05:15:11.032Z,99.99
2022-08-17T05:16:11.042Z,99.99
2022-08-17T05:17:11.425Z,99.99
2022-08-17T05:18:11.001Z,99.99
2022-08-17T05:19:11.019Z,99.99
2022-08-17T05:20:11.010Z,99.99
2022-08-17T05:21:10.959Z,99.99
2022-08-17T05:22:11.031Z,99.99
2022-08-17T05:23:10.931Z,99.99
2022-08-17T05:24:16.728Z,99.99
2022-08-17T05:25:11.970Z,99.99
2022-08-17T05:26:11.656Z,99.99
2022-08-17T05:27:18.758Z,99.99
2022-08-17T05:28:11.881Z,99.99
2022-08-17T05:29:10.914Z,99.99
2022-08-17T05:30:10.869Z,99.99
2022-08-17T05:31:10.873Z,99.99
2022-08-17T05:32:38.495Z,99.99
2022-08-17T05:33:12.021Z,99.99
2022-08-17T05:34:10.879Z,99.99
2022-08-17T05:35:10.843Z,99.99
2022-08-17T05:36:10.803Z,99.99
2022-08-17T05:37:11.784Z,99.99
2022-08-17T05:38:10.903Z,99.99
2022-08-17T05:39:16.614Z,99.99
2022-08-17T05:40:11.900Z,99.99
2022-08-17T05:41:10.752Z,99.99
2022-08-17T05:42:10.717Z,99.99
2022-08-17T05:43:10.809Z,99.99
2022-08-17T05:44:10.719Z,99.99
2022-08-17T05:45:10.695Z,99.99
2022-08-17T05:46:10.676Z,99.99
2022-08-17T05:47:10.702Z,99.99
2022-08-17T05:48:10.706Z,99.99
2022-08-17T05:49:10.668Z,99.99
2022-08-17T05:50:10.641Z,99.99
2022-08-17T05:51:11.655Z,99.99
2022-08-17T05:52:10.624Z,99.99
2022-08-17T05:53:10.605Z,99.99
2022-08-17T05:54:10.696Z,99.99
2022-08-17T05:55:10.585Z,99.71
2022-08-17T05:56:30.276Z,99.52
2022-08-17T05:57:11.609Z,99.67
2022-08-17T05:58:10.545Z,99.92
2022-08-17T05:59:10.558Z,99.99
2022-08-17T06:00:10.550Z,99.99
2022-08-17T06:01:10.632Z,99.27
2022-08-17T06:02:10.572Z,98.67
2022-08-17T06:03:10.517Z,98.27
2022-08-17T06:04:10.514Z,98.13
2022-08-17T06:05:10.494Z,98.32
2022-08-17T06:06:10.541Z,97.06
2022-08-17T06:07:10.460Z,97.02
2022-08-17T06:08:10.438Z,97.52
2022-08-17T06:09:10.564Z,97.11
2022-08-17T06:10:10.426Z,98.52
2022-08-17T06:11:10.460Z,98.57
2022-08-17T06:12:14.326Z,98.97
2022-08-17T06:13:11.442Z,98.46
2022-08-17T06:14:10.399Z,99.41
2022-08-17T06:15:10.410Z,99.52
2022-08-17T06:16:32.918Z,98.91
2022-08-17T06:17:11.395Z,99.11
2022-08-17T06:18:10.371Z,99.32
2022-08-17T06:19:10.359Z,98.31
2022-08-17T06:20:10.314Z,98.71
2022-08-17T06:21:10.323Z,98.51
2022-08-17T06:22:10.392Z,98.41
2022-08-17T06:23:10.328Z,98.71
2022-08-17T06:24:10.302Z,98.61
2022-08-17T06:25:10.985Z,98.11
2022-08-17T06:26:10.365Z,97.81
2022-08-17T06:27:10.265Z,98.41
2022-08-17T06:28:14.083Z,98.61
2022-08-17T06:29:10.300Z,98.61
2022-08-17T06:30:11.272Z,98.71
2022-08-17T06:31:10.261Z,97.71
2022-08-17T06:32:10.295Z,97.71
2022-08-17T06:33:10.182Z,97.71
2022-08-17T06:34:10.183Z,97.91
2022-08-17T06:35:10.209Z,98.41
2022-08-17T06:36:10.174Z,98.01
2022-08-17T06:37:10.145Z,97.61
2022-08-17T06:38:10.248Z,96.56
2022-08-17T06:39:11.183Z,97.20
2022-08-17T06:40:10.153Z,96.86
2022-08-17T06:41:10.104Z,95.86
2022-08-17T06:42:10.115Z,97.11
2022-08-17T06:43:11.311Z,95.86
2022-08-17T06:44:10.084Z,95.71
2022-08-17T06:45:10.055Z,95.95
2022-08-17T06:46:10.144Z,96.01
2022-08-17T06:47:10.097Z,95.71
2022-08-17T06:48:10.035Z,96.01
2022-08-17T06:49:10.014Z,95.71
2022-08-17T06:50:10.030Z,95.91
2022-08-17T06:51:09.985Z,95.41
2022-08-17T06:52:09.995Z,95.41
2022-08-17T06:53:11.006Z,94.60
2022-08-17T06:54:10.003Z,95.51
2022-08-17T06:55:09.943Z,95.41
2022-08-17T06:56:11.023Z,94.81
2022-08-17T06:57:09.984Z,94.60
2022-08-17T06:58:15.954Z,93.50
2022-08-17T06:59:10.996Z,93.00
2022-08-17T07:00:09.882Z,94.36
2022-08-17T07:01:09.937Z,94.66
2022-08-17T07:02:09.900Z,93.46
2022-08-17T07:03:10.178Z,94.26
2022-08-17T07:04:11.964Z,92.85
2022-08-17T07:05:09.965Z,92.96
2022-08-17T07:06:09.831Z,94.42
2022-08-17T07:07:09.814Z,92.71
2022-08-17T07:08:09.815Z,92.01
2022-08-17T07:09:09.831Z,91.61
2022-08-17T07:10:09.803Z,91.56
2022-08-17T07:11:09.813Z,91.97
2022-08-17T07:12:09.765Z,91.27
2022-08-17T07:13:09.767Z,92.27
2022-08-17T07:14:12.809Z,92.27
2022-08-17T07:15:10.776Z,90.96
2022-08-17T07:16:09.822Z,91.77
2022-08-17T07:17:09.706Z,92.52
2022-08-17T07:18:09.773Z,90.82
2022-08-17T07:19:10.988Z,91.16
2022-08-17T07:20:09.686Z,91.32
2022-08-17T07:21:11.969Z,90.66
2022-08-17T07:22:09.721Z,90.82
2022-08-17T07:23:09.655Z,90.62
2022-08-17T07:24:09.646Z,91.28
2022-08-17T07:25:10.657Z,91.08
2022-08-17T07:26:10.675Z,91.28
2022-08-17T07:27:09.628Z,91.28
2022-08-17T07:28:09.644Z,92.18
2022-08-17T07:29:09.644Z,92.24
2022-08-17T07:30:10.986Z,94.43
2022-08-17T07:31:09.604Z,92.74
2022-08-17T07:32:09.633Z,93.43
2022-08-17T07:33:09.549Z,94.64
2022-08-17T07:34:09.590Z,90.88
2022-08-17T07:35:10.663Z,92.18
2022-08-17T07:36:09.507Z,91.67
2022-08-17T07:37:09.510Z,91.67
2022-08-17T07:38:24.731Z,91.67
2022-08-17T07:39:10.507Z,90.72
2022-08-17T07:40:16.204Z,91.42
2022-08-17T07:41:10.468Z,92.22
2022-08-17T07:42:09.520Z,92.12
2022-08-17T07:43:11.437Z,93.32
2022-08-17T07:44:10.504Z,93.43
2022-08-17T07:45:09.478Z,93.32
2022-08-17T07:46:09.491Z,94.12
2022-08-17T07:47:09.460Z,94.32
2022-08-17T07:48:09.420Z,93.23
2022-08-17T07:49:09.392Z,93.93
2022-08-17T07:50:09.378Z,94.12
2022-08-17T07:51:09.392Z,94.02
2022-08-17T07:52:24.820Z,94.12
2022-08-17T07:53:10.477Z,94.02
2022-08-17T07:54:14.513Z,93.58
2022-08-17T07:55:10.315Z,92.88
2022-08-17T07:56:09.417Z,92.98
2022-08-17T07:57:09.294Z,92.74
2022-08-17T07:58:09.320Z,91.24
2022-08-17T07:59:09.314Z,91.83
2022-08-17T08:00:12.741Z,92.19
2022-08-17T08:01:10.239Z,92.39
2022-08-17T08:02:10.167Z,92.05
2022-08-17T08:03:09.223Z,92.40
2022-08-17T08:04:09.344Z,94.06
2022-08-17T08:05:10.106Z,93.66
2022-08-17T08:06:09.333Z,92.91
2022-08-17T08:07:09.265Z,92.57
2022-08-17T08:08:09.254Z,92.47
2022-08-17T08:09:10.237Z,90.37
2022-08-17T08:10:09.194Z,91.07
2022-08-17T08:11:09.150Z,89.58
2022-08-17T08:12:09.114Z,88.92
2022-08-17T08:13:12.254Z,90.28
2022-08-17T08:14:09.112Z,90.92
2022-08-17T08:15:09.099Z,91.57
2022-08-17T08:16:09.088Z,90.58
2022-08-17T08:17:09.392Z,90.17
2022-08-17T08:18:09.073Z,91.17
2022-08-17T08:19:09.093Z,90.43
2022-08-17T08:20:52.521Z,90.43
2022-08-17T08:21:10.037Z,90.99
2022-08-17T08:22:09.049Z,89.53
2022-08-17T08:23:09.046Z,88.98
2022-08-17T08:24:09.039Z,88.68
2022-08-17T08:25:08.979Z,89.58
2022-08-17T08:26:08.991Z,90.14
2022-08-17T08:27:09.018Z,86.99
2022-08-17T08:28:08.957Z,83.98
2022-08-17T08:29:08.942Z,82.62
2022-08-17T08:30:08.965Z,81.38
2022-08-17T08:31:08.938Z,80.59
2022-08-17T08:32:09.004Z,78.88
2022-08-17T08:33:08.911Z,82.10
2022-08-17T08:34:08.878Z,83.47
2022-08-17T08:35:09.871Z,84.17
2022-08-17T08:36:08.902Z,84.41
2022-08-17T08:37:17.800Z,82.86
2022-08-17T08:38:09.896Z,83.99
2022-08-17T08:39:08.838Z,85.82
2022-08-17T08:40:09.081Z,85.13
2022-08-17T08:41:08.825Z,85.82
2022-08-17T08:42:08.805Z,85.92
2022-08-17T08:43:08.834Z,84.25
2022-08-17T08:44:08.819Z,86.35
2022-08-17T08:45:08.863Z,82.65
2022-08-17T08:46:08.789Z,80.41
2022-08-17T08:47:08.751Z,76.45
2022-08-17T08:48:12.829Z,76.40
2022-08-17T08:49:10.150Z,72.98
2022-08-17T08:50:08.711Z,74.21
2022-08-17T08:51:09.804Z,74.18
2022-08-17T08:52:08.736Z,74.74
2022-08-17T08:53:08.713Z,78.35
2022-08-17T08:54:08.737Z,76.21
2022-08-17T08:55:08.683Z,77.53
2022-08-17T08:56:08.693Z,79.06
2022-08-17T08:57:29.153Z,80.29
2022-08-17T08:58:31.884Z,79.99
2022-08-17T08:59:09.620Z,82.92
2022-08-17T09:00:08.656Z,82.22
2022-08-17T09:01:08.638Z,81.96
2022-08-17T09:02:09.729Z,81.80
2022-08-17T09:03:08.660Z,82.59
2022-08-17T09:04:23.329Z,82.84
2022-08-17T09:05:14.410Z,83.07
2022-08-17T09:06:32.095Z,83.91
2022-08-17T09:07:09.538Z,84.91
2022-08-17T09:08:08.594Z,85.14
2022-08-17T09:09:08.547Z,86.04
2022-08-17T09:10:08.501Z,86.49
2022-08-17T09:11:08.485Z,88.38
2022-08-17T09:12:08.471Z,88.42
2022-08-17T09:13:10.156Z,89.32
2022-08-17T09:14:21.573Z,89.52
2022-08-17T09:15:12.826Z,90.52
2022-08-17T09:16:08.477Z,89.12
2022-08-17T09:17:08.419Z,90.66
2022-08-17T09:19:00.068Z,90.46
2022-08-17T09:19:09.395Z,90.66
2022-08-17T09:20:08.397Z,90.80
2022-08-17T09:21:08.400Z,91.45
2022-08-17T09:22:08.367Z,91.95
2022-08-17T09:23:08.446Z,92.49
2022-08-17T09:24:08.409Z,92.79
2022-08-17T09:25:08.354Z,93.24
2022-08-17T09:26:08.318Z,94.39
2022-08-17T09:27:08.328Z,93.59
2022-08-17T09:28:08.363Z,94.19
2022-08-17T09:29:08.306Z,93.39
2022-08-17T09:30:08.322Z,93.59
2022-08-17T09:31:08.313Z,94.09
2022-08-17T09:32:08.292Z,93.74
2022-08-17T09:33:08.277Z,92.69
2022-08-17T09:34:08.436Z,93.89
2022-08-17T09:35:08.251Z,92.25
2022-08-17T09:36:08.285Z,93.69
2022-08-17T09:37:08.197Z,92.49
2022-08-17T09:38:08.238Z,91.89
2022-08-17T09:39:08.194Z,92.29
2022-08-17T09:40:08.224Z,92.55
2022-08-17T09:41:08.190Z,91.89
2022-08-17T09:42:08.151Z,92.75
2022-08-17T09:43:08.211Z,92.39
2022-08-17T09:44:22.690Z,93.19
2022-08-17T09:45:09.207Z,92.79
2022-08-17T09:46:08.183Z,93.09
2022-08-17T09:47:08.504Z,92.69
2022-08-17T09:48:09.127Z,93.19
2022-08-17T09:49:08.072Z,93.29
2022-08-17T09:50:08.099Z,93.59
2022-08-17T09:51:08.078Z,93.19
2022-08-17T09:52:08.081Z,92.49
2022-08-17T09:53:08.107Z,93.49
2022-08-17T09:54:36.909Z,93.09
2022-08-17T09:55:08.998Z,93.29
2022-08-17T09:56:08.026Z,92.59
2022-08-17T09:57:28.738Z,93.09
2022-08-17T09:58:09.009Z,93.09
2022-08-17T09:59:07.981Z,93.59
2022-08-17T10:00:07.987Z,94.19
2022-08-17T10:01:07.989Z,94.09
2022-08-17T10:02:07.934Z,94.09
2022-08-17T10:03:08.954Z,94.23
2022-08-17T10:04:08.009Z,94.09
2022-08-17T10:05:08.853Z,94.39
2022-08-17T10:06:08.286Z,95.09
2022-08-17T10:07:07.893Z,94.09
2022-08-17T10:08:07.892Z,95.49
2022-08-17T10:09:07.859Z,95.49
2022-08-17T10:10:13.580Z,94.23
2022-08-17T10:11:08.869Z,95.14
2022-08-17T10:12:07.818Z,95.73
2022-08-17T10:13:09.576Z,95.39
2022-08-17T10:14:35.960Z,95.54
2022-08-17T10:15:11.145Z,95.79
2022-08-17T10:16:07.795Z,95.29
2022-08-17T10:17:07.784Z,95.04
2022-08-17T10:18:07.917Z,94.74
2022-08-17T10:19:07.794Z,94.50
2022-08-17T10:20:07.766Z,93.80
2022-08-17T10:21:07.813Z,93.96
2022-08-17T10:22:32.362Z,94.95
2022-08-17T10:23:08.802Z,93.21
2022-08-17T10:24:07.696Z,94.11
2022-08-17T10:25:23.227Z,92.96
2022-08-17T10:26:08.725Z,93.85
2022-08-17T10:27:07.660Z,93.85
2022-08-17T10:28:09.046Z,94.71
2022-08-17T10:29:08.637Z,94.41
2022-08-17T10:30:07.659Z,93.16
2022-08-17T10:31:36.642Z,93.05
2022-08-17T10:32:08.707Z,93.16
2022-08-17T10:33:07.612Z,93.16
2022-08-17T10:34:07.612Z,94.35
2022-08-17T10:35:07.623Z,93.26
2022-08-17T10:36:10.766Z,93.96
2022-08-17T10:37:07.554Z,93.26
2022-08-17T10:38:07.633Z,92.96
2022-08-17T10:39:07.626Z,92.02
2022-08-17T10:40:07.773Z,90.86
2022-08-17T10:41:07.606Z,90.81
2022-08-17T10:42:07.500Z,90.08
2022-08-17T10:43:07.507Z,89.28
2022-08-17T10:44:38.729Z,89.53
2022-08-17T10:45:08.499Z,91.58
2022-08-17T10:46:10.455Z,88.25
2022-08-17T10:47:08.450Z,88.35
2022-08-17T10:48:07.784Z,86.72
2022-08-17T10:49:07.484Z,85.36
2022-08-17T10:50:07.552Z,85.66
2022-08-17T10:51:07.401Z,84.77
2022-08-17T10:52:07.400Z,85.42
2022-08-17T10:53:07.400Z,86.87
2022-08-17T10:54:07.374Z,84.03
2022-08-17T10:55:07.382Z,85.02
2022-08-17T10:56:07.412Z,83.39
2022-08-17T10:57:07.349Z,82.93
2022-08-17T10:58:07.502Z,82.18
2022-08-17T10:59:07.954Z,86.42
2022-08-17T11:00:07.312Z,84.23
2022-08-17T11:01:07.350Z,83.89
2022-08-17T11:02:07.318Z,83.79
2022-08-17T11:03:07.316Z,84.94
2022-08-17T11:04:07.296Z,83.55
2022-08-17T11:05:07.317Z,82.76
2022-08-17T11:06:07.289Z,85.54
2022-08-17T11:07:07.341Z,84.60
2022-08-17T11:08:07.342Z,84.17
2022-08-17T11:09:07.253Z,81.18
2022-08-17T11:10:07.245Z,79.99
2022-08-17T11:11:07.191Z,81.94
2022-08-17T11:12:07.179Z,80.35
2022-08-17T11:13:07.204Z,79.66
2022-08-17T11:14:07.171Z,81.40
2022-08-17T11:15:07.256Z,75.74
2022-08-17T11:16:08.482Z,78.78
2022-08-17T11:18:15.210Z,78.19
2022-08-17T11:19:07.099Z,74.82
2022-08-17T11:20:07.108Z,74.62
2022-08-17T11:21:07.125Z,74.82
2022-08-17T11:22:07.112Z,76.10
2022-08-17T11:23:07.172Z,76.97
2022-08-17T11:24:07.065Z,78.11
2022-08-17T11:25:08.453Z,72.17
2022-08-17T11:26:08.365Z,72.36
2022-08-17T11:27:07.024Z,71.17
2022-08-17T11:28:07.090Z,72.73
2022-08-17T11:29:07.032Z,71.73
2022-08-17T11:30:07.025Z,73.12
2022-08-17T11:31:06.994Z,75.40
2022-08-17T11:32:07.084Z,72.36
2022-08-17T11:33:07.277Z,72.86
2022-08-17T11:34:07.352Z,72.86
2022-08-17T11:35:07.303Z,71.83
2022-08-17T11:36:06.973Z,75.01
2022-08-17T11:37:06.960Z,73.16
2022-08-17T11:38:10.854Z,74.41
2022-08-17T11:39:07.986Z,75.70
2022-08-17T11:40:07.034Z,71.08
2022-08-17T11:41:06.937Z,71.28
2022-08-17T11:42:06.917Z,71.87
2022-08-17T11:43:09.590Z,70.02
2022-08-17T11:44:06.891Z,71.44
2022-08-17T11:45:06.846Z,72.60
2022-08-17T11:46:06.832Z,71.01
2022-08-17T11:47:06.844Z,70.91
2022-08-17T11:48:27.268Z,71.01
2022-08-17T11:49:07.835Z,72.80
2022-08-17T11:50:06.795Z,73.65
2022-08-17T11:51:06.802Z,69.16
2022-08-17T11:52:06.832Z,68.63
2022-08-17T11:53:06.814Z,69.89
2022-08-17T11:54:31.837Z,67.41
2022-08-17T11:55:33.524Z,69.75
2022-08-17T11:56:07.709Z,68.01
2022-08-17T11:57:06.696Z,66.89
2022-08-17T11:58:06.753Z,69.02
2022-08-17T11:59:06.708Z,64.42
2022-08-17T12:00:06.754Z,65.61
2022-08-17T12:01:06.689Z,60.39
2022-08-17T12:02:06.642Z,64.46
2022-08-17T12:03:06.719Z,62.49
2022-08-17T12:04:06.666Z,68.76
2022-08-17T12:05:09.729Z,61.18
2022-08-17T12:06:07.621Z,62.25
2022-08-17T12:07:06.608Z,67.22
2022-08-17T12:08:06.597Z,63.89
2022-08-17T12:09:06.654Z,65.83
2022-08-17T12:10:06.807Z,66.03
2022-08-17T12:11:06.557Z,64.52
2022-08-17T12:12:12.718Z,64.78
2022-08-17T12:13:07.535Z,63.90
2022-08-17T12:14:06.558Z,62.87
2022-08-17T12:15:10.539Z,63.62
2022-08-17T12:16:06.523Z,65.67
2022-08-17T12:17:06.497Z,62.96
2022-08-17T12:18:06.778Z,63.23
2022-08-17T12:19:06.589Z,63.53
2022-08-17T12:20:06.489Z,64.64
2022-08-17T12:21:06.449Z,67.48
2022-08-17T12:22:06.434Z,63.79
2022-08-17T12:23:06.451Z,61.79
2022-08-17T12:24:06.449Z,63.08
2022-08-17T12:25:06.406Z,61.67
2022-08-17T12:26:06.459Z,60.92
2022-08-17T12:27:06.758Z,62.43
2022-08-17T12:28:07.833Z,64.00
2022-08-17T12:29:06.361Z,63.12
2022-08-17T12:30:06.445Z,63.64
2022-08-17T12:31:06.380Z,63.41
2022-08-17T12:32:06.365Z,67.38
2022-08-17T12:33:06.377Z,60.78
2022-08-17T12:34:06.312Z,62.27
2022-08-17T12:35:06.320Z,56.66
2022-08-17T12:36:06.466Z,62.01
2022-08-17T12:37:09.997Z,57.78
2022-08-17T12:38:06.297Z,60.60
2022-08-17T12:39:14.878Z,56.65
2022-08-17T12:40:07.429Z,57.01
2022-08-17T12:41:06.248Z,55.86
2022-08-17T12:42:06.247Z,59.59
2022-08-17T12:43:06.237Z,59.92
2022-08-17T12:44:06.285Z,60.47
2022-08-17T12:45:07.106Z,60.55
2022-08-17T12:46:13.230Z,58.48
2022-08-17T12:47:07.176Z,60.13
2022-08-17T12:48:06.179Z,58.62
2022-08-17T12:49:06.162Z,58.98
2022-08-17T12:50:06.211Z,59.97
2022-08-17T12:51:06.149Z,57.87
2022-08-17T12:52:06.565Z,60.77
2022-08-17T12:53:06.133Z,58.44
2022-08-17T12:54:06.152Z,59.92
2022-08-17T12:55:06.162Z,60.77
2022-08-17T12:56:06.124Z,61.82
2022-08-17T12:57:06.137Z,58.72
2022-08-17T12:58:06.068Z,57.67
2022-08-17T12:59:06.059Z,57.60
2022-08-17T13:00:06.044Z,56.55